sensor_id;sensor_type;location;lat;lon;timestamp;P1;durP1;ratioP1;P2;durP2;ratioP2
84288;SDS011;74602;50.294;18.660;2023-12-20T00:00:46;11.87;;;7.07;;
84288;SDS011;74602;50.294;18.660;2023-12-20T00:03:12;13.77;;;7.18;;
84288;SDS011;74602;50.294;18.660;2023-12-20T00:05:37;10.40;;;6.17;;
84288;SDS011;74602;50.294;18.660;2023-12-20T00:08:06;12.85;;;6.47;;
84288;SDS011;74602;50.294;18.660;2023-12-20T00:10:31;14.02;;;7.03;;
84288;SDS011;74602;50.294;18.660;2023-12-20T00:12:56;13.32;;;6.65;;
84288;SDS011;74602;50.294;18.660;2023-12-20T00:15:22;14.27;;;7.40;;
84288;SDS011;74602;50.294;18.660;2023-12-20T00:17:47;12.90;;;7.57;;
84288;SDS011;74602;50.294;18.660;2023-12-20T00:20:13;13.90;;;7.57;;
84288;SDS011;74602;50.294;18.660;2023-12-20T00:22:38;13.32;;;7.05;;
84288;SDS011;74602;50.294;18.660;2023-12-20T00:25:03;14.70;;;7.73;;
84288;SDS011;74602;50.294;18.660;2023-12-20T00:27:29;15.57;;;7.28;;
84288;SDS011;74602;50.294;18.660;2023-12-20T00:29:54;16.65;;;7.28;;
84288;SDS011;74602;50.294;18.660;2023-12-20T00:32:20;13.80;;;7.50;;
84288;SDS011;74602;50.294;18.660;2023-12-20T00:34:45;13.23;;;6.53;;
84288;SDS011;74602;50.294;18.660;2023-12-20T00:37:11;14.68;;;6.95;;
84288;SDS011;74602;50.294;18.660;2023-12-20T00:39:36;10.05;;;6.13;;
84288;SDS011;74602;50.294;18.660;2023-12-20T00:42:01;11.85;;;6.70;;
84288;SDS011;74602;50.294;18.660;2023-12-20T00:44:27;14.10;;;7.00;;
84288;SDS011;74602;50.294;18.660;2023-12-20T00:46:52;11.98;;;7.20;;
84288;SDS011;74602;50.294;18.660;2023-12-20T00:49:17;14.00;;;8.05;;
84288;SDS011;74602;50.294;18.660;2023-12-20T00:51:43;12.40;;;7.57;;
84288;SDS011;74602;50.294;18.660;2023-12-20T00:54:08;12.00;;;7.97;;
84288;SDS011;74602;50.294;18.660;2023-12-20T00:56:34;9.93;;;6.65;;
84288;SDS011;74602;50.294;18.660;2023-12-20T00:58:59;10.25;;;6.75;;
84288;SDS011;74602;50.294;18.660;2023-12-20T01:01:25;10.82;;;6.22;;
84288;SDS011;74602;50.294;18.660;2023-12-20T01:03:50;9.85;;;5.65;;
84288;SDS011;74602;50.294;18.660;2023-12-20T01:06:16;8.73;;;5.72;;
84288;SDS011;74602;50.294;18.660;2023-12-20T01:08:41;12.43;;;6.78;;
84288;SDS011;74602;50.294;18.660;2023-12-20T01:11:07;10.18;;;5.80;;
84288;SDS011;74602;50.294;18.660;2023-12-20T01:13:32;11.18;;;6.10;;
84288;SDS011;74602;50.294;18.660;2023-12-20T01:15:58;10.73;;;6.28;;
84288;SDS011;74602;50.294;18.660;2023-12-20T01:18:23;10.10;;;5.55;;
84288;SDS011;74602;50.294;18.660;2023-12-20T01:20:48;13.13;;;6.80;;
84288;SDS011;74602;50.294;18.660;2023-12-20T01:23:14;9.10;;;5.97;;
84288;SDS011;74602;50.294;18.660;2023-12-20T01:25:39;11.33;;;5.70;;
84288;SDS011;74602;50.294;18.660;2023-12-20T01:28:04;9.05;;;5.45;;
84288;SDS011;74602;50.294;18.660;2023-12-20T01:30:30;8.68;;;5.88;;
84288;SDS011;74602;50.294;18.660;2023-12-20T01:32:55;11.20;;;6.47;;
84288;SDS011;74602;50.294;18.660;2023-12-20T01:35:21;11.73;;;5.93;;
84288;SDS011;74602;50.294;18.660;2023-12-20T01:37:46;8.35;;;5.55;;
84288;SDS011;74602;50.294;18.660;2023-12-20T01:40:12;13.88;;;6.22;;
84288;SDS011;74602;50.294;18.660;2023-12-20T01:42:37;10.98;;;6.28;;
84288;SDS011;74602;50.294;18.660;2023-12-20T01:45:02;11.20;;;6.13;;
84288;SDS011;74602;50.294;18.660;2023-12-20T01:47:28;11.18;;;5.00;;
84288;SDS011;74602;50.294;18.660;2023-12-20T01:49:54;10.15;;;5.47;;
84288;SDS011;74602;50.294;18.660;2023-12-20T01:52:21;11.07;;;5.50;;
84288;SDS011;74602;50.294;18.660;2023-12-20T01:54:47;8.32;;;5.20;;
84288;SDS011;74602;50.294;18.660;2023-12-20T01:57:13;11.60;;;5.72;;
84288;SDS011;74602;50.294;18.660;2023-12-20T01:59:39;10.10;;;5.63;;
84288;SDS011;74602;50.294;18.660;2023-12-20T02:02:05;14.27;;;6.85;;
84288;SDS011;74602;50.294;18.660;2023-12-20T02:04:32;10.73;;;5.78;;
84288;SDS011;74602;50.294;18.660;2023-12-20T02:06:57;10.90;;;6.28;;
84288;SDS011;74602;50.294;18.660;2023-12-20T02:09:24;11.18;;;6.35;;
84288;SDS011;74602;50.294;18.660;2023-12-20T02:11:49;10.50;;;6.55;;
84288;SDS011;74602;50.294;18.660;2023-12-20T02:14:15;12.63;;;6.00;;
84288;SDS011;74602;50.294;18.660;2023-12-20T02:16:41;10.68;;;5.93;;
84288;SDS011;74602;50.294;18.660;2023-12-20T02:19:07;9.85;;;6.20;;
84288;SDS011;74602;50.294;18.660;2023-12-20T02:21:39;10.20;;;6.20;;
84288;SDS011;74602;50.294;18.660;2023-12-20T02:24:05;12.13;;;6.33;;
84288;SDS011;74602;50.294;18.660;2023-12-20T02:26:31;12.10;;;5.85;;
84288;SDS011;74602;50.294;18.660;2023-12-20T02:28:58;10.82;;;5.63;;
84288;SDS011;74602;50.294;18.660;2023-12-20T02:31:24;8.80;;;5.95;;
84288;SDS011;74602;50.294;18.660;2023-12-20T02:33:50;12.77;;;6.10;;
84288;SDS011;74602;50.294;18.660;2023-12-20T02:36:15;10.33;;;6.03;;
84288;SDS011;74602;50.294;18.660;2023-12-20T02:38:40;12.57;;;6.43;;
84288;SDS011;74602;50.294;18.660;2023-12-20T02:41:06;11.35;;;6.03;;
84288;SDS011;74602;50.294;18.660;2023-12-20T02:43:31;10.80;;;6.22;;
84288;SDS011;74602;50.294;18.660;2023-12-20T02:45:56;11.63;;;6.28;;
84288;SDS011;74602;50.294;18.660;2023-12-20T02:48:22;11.77;;;6.23;;
84288;SDS011;74602;50.294;18.660;2023-12-20T02:50:47;9.40;;;5.38;;
84288;SDS011;74602;50.294;18.660;2023-12-20T02:53:14;9.50;;;5.50;;
84288;SDS011;74602;50.294;18.660;2023-12-20T02:55:39;12.70;;;6.28;;
84288;SDS011;74602;50.294;18.660;2023-12-20T02:58:05;7.30;;;4.97;;
84288;SDS011;74602;50.294;18.660;2023-12-20T03:00:30;8.63;;;5.55;;
84288;SDS011;74602;50.294;18.660;2023-12-20T03:02:55;11.63;;;5.63;;
84288;SDS011;74602;50.294;18.660;2023-12-20T03:05:21;11.02;;;5.80;;
84288;SDS011;74602;50.294;18.660;2023-12-20T03:07:46;10.00;;;5.90;;
84288;SDS011;74602;50.294;18.660;2023-12-20T03:10:11;9.07;;;5.22;;
84288;SDS011;74602;50.294;18.660;2023-12-20T03:12:37;10.57;;;5.72;;
84288;SDS011;74602;50.294;18.660;2023-12-20T03:15:02;8.25;;;5.65;;
84288;SDS011;74602;50.294;18.660;2023-12-20T03:17:28;8.30;;;5.40;;
84288;SDS011;74602;50.294;18.660;2023-12-20T03:19:53;12.37;;;5.60;;
84288;SDS011;74602;50.294;18.660;2023-12-20T03:22:18;9.52;;;5.63;;
84288;SDS011;74602;50.294;18.660;2023-12-20T03:24:44;9.50;;;5.00;;
84288;SDS011;74602;50.294;18.660;2023-12-20T03:27:09;9.75;;;5.90;;
84288;SDS011;74602;50.294;18.660;2023-12-20T03:29:34;11.82;;;5.97;;
84288;SDS011;74602;50.294;18.660;2023-12-20T03:32:00;9.60;;;5.05;;
84288;SDS011;74602;50.294;18.660;2023-12-20T03:34:26;7.32;;;4.95;;
84288;SDS011;74602;50.294;18.660;2023-12-20T03:36:51;7.97;;;4.78;;
84288;SDS011;74602;50.294;18.660;2023-12-20T03:39:17;8.77;;;4.68;;
84288;SDS011;74602;50.294;18.660;2023-12-20T03:41:42;6.63;;;4.50;;
84288;SDS011;74602;50.294;18.660;2023-12-20T03:44:07;6.88;;;4.30;;
84288;SDS011;74602;50.294;18.660;2023-12-20T03:46:33;7.10;;;4.30;;
84288;SDS011;74602;50.294;18.660;2023-12-20T03:48:58;8.15;;;4.20;;
84288;SDS011;74602;50.294;18.660;2023-12-20T03:51:24;8.38;;;4.93;;
84288;SDS011;74602;50.294;18.660;2023-12-20T03:53:49;8.23;;;4.53;;
84288;SDS011;74602;50.294;18.660;2023-12-20T03:56:14;7.97;;;4.40;;
84288;SDS011;74602;50.294;18.660;2023-12-20T03:58:40;7.32;;;4.85;;
84288;SDS011;74602;50.294;18.660;2023-12-20T04:01:09;7.10;;;4.65;;
84288;SDS011;74602;50.294;18.660;2023-12-20T04:03:37;8.02;;;4.53;;
84288;SDS011;74602;50.294;18.660;2023-12-20T04:06:02;9.43;;;4.75;;
84288;SDS011;74602;50.294;18.660;2023-12-20T04:08:28;7.38;;;4.78;;
84288;SDS011;74602;50.294;18.660;2023-12-20T04:10:53;7.20;;;4.53;;
84288;SDS011;74602;50.294;18.660;2023-12-20T04:13:18;8.40;;;4.13;;
84288;SDS011;74602;50.294;18.660;2023-12-20T04:15:44;7.10;;;4.10;;
84288;SDS011;74602;50.294;18.660;2023-12-20T04:18:09;7.70;;;4.53;;
84288;SDS011;74602;50.294;18.660;2023-12-20T04:20:35;8.15;;;4.70;;
84288;SDS011;74602;50.294;18.660;2023-12-20T04:23:00;7.47;;;4.40;;
84288;SDS011;74602;50.294;18.660;2023-12-20T04:25:26;6.28;;;4.00;;
84288;SDS011;74602;50.294;18.660;2023-12-20T04:27:51;7.15;;;4.25;;
84288;SDS011;74602;50.294;18.660;2023-12-20T04:30:16;8.67;;;5.33;;
84288;SDS011;74602;50.294;18.660;2023-12-20T04:32:42;10.67;;;5.30;;
84288;SDS011;74602;50.294;18.660;2023-12-20T04:35:07;9.68;;;5.63;;
84288;SDS011;74602;50.294;18.660;2023-12-20T04:37:33;7.85;;;5.10;;
84288;SDS011;74602;50.294;18.660;2023-12-20T04:39:59;12.23;;;6.20;;
84288;SDS011;74602;50.294;18.660;2023-12-20T04:42:24;11.32;;;6.25;;
84288;SDS011;74602;50.294;18.660;2023-12-20T04:44:49;10.10;;;5.88;;
84288;SDS011;74602;50.294;18.660;2023-12-20T04:47:15;11.27;;;5.93;;
84288;SDS011;74602;50.294;18.660;2023-12-20T04:49:40;11.10;;;6.33;;
84288;SDS011;74602;50.294;18.660;2023-12-20T04:52:05;11.30;;;5.93;;
84288;SDS011;74602;50.294;18.660;2023-12-20T04:54:31;10.10;;;5.72;;
84288;SDS011;74602;50.294;18.660;2023-12-20T04:56:56;9.70;;;6.15;;
84288;SDS011;74602;50.294;18.660;2023-12-20T04:59:21;9.93;;;6.47;;
84288;SDS011;74602;50.294;18.660;2023-12-20T05:01:47;10.77;;;6.43;;
84288;SDS011;74602;50.294;18.660;2023-12-20T05:04:12;8.50;;;5.70;;
84288;SDS011;74602;50.294;18.660;2023-12-20T05:06:38;12.10;;;5.80;;
84288;SDS011;74602;50.294;18.660;2023-12-20T05:09:03;9.68;;;6.25;;
84288;SDS011;74602;50.294;18.660;2023-12-20T05:11:29;11.38;;;6.63;;
84288;SDS011;74602;50.294;18.660;2023-12-20T05:13:54;9.15;;;6.50;;
84288;SDS011;74602;50.294;18.660;2023-12-20T05:16:21;11.95;;;7.18;;
84288;SDS011;74602;50.294;18.660;2023-12-20T05:18:47;10.02;;;7.00;;
84288;SDS011;74602;50.294;18.660;2023-12-20T05:21:14;12.63;;;8.48;;
84288;SDS011;74602;50.294;18.660;2023-12-20T05:23:40;13.13;;;7.05;;
84288;SDS011;74602;50.294;18.660;2023-12-20T05:26:05;13.17;;;7.00;;
84288;SDS011;74602;50.294;18.660;2023-12-20T05:28:31;10.68;;;7.10;;
84288;SDS011;74602;50.294;18.660;2023-12-20T05:30:56;11.05;;;6.80;;
84288;SDS011;74602;50.294;18.660;2023-12-20T05:33:22;11.40;;;6.78;;
84288;SDS011;74602;50.294;18.660;2023-12-20T05:35:47;14.47;;;8.00;;
84288;SDS011;74602;50.294;18.660;2023-12-20T05:38:12;13.73;;;6.60;;
84288;SDS011;74602;50.294;18.660;2023-12-20T05:40:38;13.05;;;7.78;;
84288;SDS011;74602;50.294;18.660;2023-12-20T05:43:03;17.35;;;7.80;;
84288;SDS011;74602;50.294;18.660;2023-12-20T05:45:29;12.88;;;7.22;;
84288;SDS011;74602;50.294;18.660;2023-12-20T05:47:54;14.13;;;8.30;;
84288;SDS011;74602;50.294;18.660;2023-12-20T05:50:20;15.43;;;9.10;;
84288;SDS011;74602;50.294;18.660;2023-12-20T05:52:46;11.63;;;7.45;;
84288;SDS011;74602;50.294;18.660;2023-12-20T05:55:11;13.75;;;8.23;;
84288;SDS011;74602;50.294;18.660;2023-12-20T05:57:37;13.07;;;8.60;;
84288;SDS011;74602;50.294;18.660;2023-12-20T06:00:02;12.90;;;8.20;;
84288;SDS011;74602;50.294;18.660;2023-12-20T06:02:28;17.17;;;9.35;;
84288;SDS011;74602;50.294;18.660;2023-12-20T06:04:54;15.05;;;9.40;;
84288;SDS011;74602;50.294;18.660;2023-12-20T06:07:19;16.77;;;9.70;;
84288;SDS011;74602;50.294;18.660;2023-12-20T06:09:45;22.33;;;10.45;;
84288;SDS011;74602;50.294;18.660;2023-12-20T06:12:11;19.27;;;10.25;;
84288;SDS011;74602;50.294;18.660;2023-12-20T06:14:36;16.05;;;10.48;;
84288;SDS011;74602;50.294;18.660;2023-12-20T06:17:02;20.23;;;11.25;;
84288;SDS011;74602;50.294;18.660;2023-12-20T06:19:27;18.20;;;10.07;;
84288;SDS011;74602;50.294;18.660;2023-12-20T06:21:53;19.67;;;11.30;;
84288;SDS011;74602;50.294;18.660;2023-12-20T06:24:19;18.00;;;9.68;;
84288;SDS011;74602;50.294;18.660;2023-12-20T06:26:44;19.45;;;10.52;;
84288;SDS011;74602;50.294;18.660;2023-12-20T06:29:09;14.80;;;9.13;;
84288;SDS011;74602;50.294;18.660;2023-12-20T06:31:35;16.10;;;8.75;;
84288;SDS011;74602;50.294;18.660;2023-12-20T06:34:00;14.75;;;8.70;;
84288;SDS011;74602;50.294;18.660;2023-12-20T06:36:26;14.73;;;7.97;;
84288;SDS011;74602;50.294;18.660;2023-12-20T06:38:51;10.82;;;7.07;;
84288;SDS011;74602;50.294;18.660;2023-12-20T06:41:17;13.35;;;7.10;;
84288;SDS011;74602;50.294;18.660;2023-12-20T06:43:43;13.90;;;7.78;;
84288;SDS011;74602;50.294;18.660;2023-12-20T06:46:08;13.15;;;7.00;;
84288;SDS011;74602;50.294;18.660;2023-12-20T06:48:34;15.40;;;7.63;;
84288;SDS011;74602;50.294;18.660;2023-12-20T06:51:00;14.65;;;7.30;;
84288;SDS011;74602;50.294;18.660;2023-12-20T06:53:27;14.13;;;7.20;;
84288;SDS011;74602;50.294;18.660;2023-12-20T06:55:52;11.20;;;7.20;;
84288;SDS011;74602;50.294;18.660;2023-12-20T06:58:18;14.13;;;7.97;;
84288;SDS011;74602;50.294;18.660;2023-12-20T07:00:43;10.63;;;7.70;;
84288;SDS011;74602;50.294;18.660;2023-12-20T07:03:09;15.65;;;8.23;;
84288;SDS011;74602;50.294;18.660;2023-12-20T07:05:34;12.57;;;7.57;;
84288;SDS011;74602;50.294;18.660;2023-12-20T07:08:00;11.07;;;7.28;;
84288;SDS011;74602;50.294;18.660;2023-12-20T07:10:25;9.77;;;6.82;;
84288;SDS011;74602;50.294;18.660;2023-12-20T07:12:51;12.32;;;7.47;;
84288;SDS011;74602;50.294;18.660;2023-12-20T07:15:17;13.50;;;7.60;;
84288;SDS011;74602;50.294;18.660;2023-12-20T07:17:43;12.38;;;7.35;;
84288;SDS011;74602;50.294;18.660;2023-12-20T07:20:09;14.95;;;7.13;;
84288;SDS011;74602;50.294;18.660;2023-12-20T07:22:36;16.52;;;7.45;;
84288;SDS011;74602;50.294;18.660;2023-12-20T07:25:01;13.70;;;7.90;;
84288;SDS011;74602;50.294;18.660;2023-12-20T07:27:27;13.32;;;7.68;;
84288;SDS011;74602;50.294;18.660;2023-12-20T07:29:52;13.40;;;7.82;;
84288;SDS011;74602;50.294;18.660;2023-12-20T07:32:18;12.03;;;6.60;;
84288;SDS011;74602;50.294;18.660;2023-12-20T07:34:43;12.95;;;7.57;;
84288;SDS011;74602;50.294;18.660;2023-12-20T07:37:09;13.07;;;6.90;;
84288;SDS011;74602;50.294;18.660;2023-12-20T07:39:36;9.57;;;6.72;;
84288;SDS011;74602;50.294;18.660;2023-12-20T07:42:05;16.42;;;8.60;;
84288;SDS011;74602;50.294;18.660;2023-12-20T07:44:31;15.70;;;7.45;;
84288;SDS011;74602;50.294;18.660;2023-12-20T07:46:56;12.23;;;7.65;;
84288;SDS011;74602;50.294;18.660;2023-12-20T07:49:23;12.93;;;7.88;;
84288;SDS011;74602;50.294;18.660;2023-12-20T07:51:48;16.63;;;8.85;;
84288;SDS011;74602;50.294;18.660;2023-12-20T07:54:15;18.45;;;9.30;;
84288;SDS011;74602;50.294;18.660;2023-12-20T07:56:40;13.50;;;7.35;;
84288;SDS011;74602;50.294;18.660;2023-12-20T07:59:06;13.93;;;7.88;;
84288;SDS011;74602;50.294;18.660;2023-12-20T08:01:31;14.60;;;8.03;;
84288;SDS011;74602;50.294;18.660;2023-12-20T08:03:56;13.07;;;8.05;;
84288;SDS011;74602;50.294;18.660;2023-12-20T08:06:22;14.35;;;8.18;;
84288;SDS011;74602;50.294;18.660;2023-12-20T08:08:47;13.27;;;7.75;;
84288;SDS011;74602;50.294;18.660;2023-12-20T08:11:13;13.35;;;7.80;;
84288;SDS011;74602;50.294;18.660;2023-12-20T08:13:38;12.30;;;7.65;;
84288;SDS011;74602;50.294;18.660;2023-12-20T08:16:04;13.32;;;7.72;;
84288;SDS011;74602;50.294;18.660;2023-12-20T08:18:29;16.30;;;8.40;;
84288;SDS011;74602;50.294;18.660;2023-12-20T08:20:55;13.60;;;8.07;;
84288;SDS011;74602;50.294;18.660;2023-12-20T08:23:20;11.75;;;7.20;;
84288;SDS011;74602;50.294;18.660;2023-12-20T08:25:46;16.58;;;9.60;;
84288;SDS011;74602;50.294;18.660;2023-12-20T08:28:11;16.10;;;8.90;;
84288;SDS011;74602;50.294;18.660;2023-12-20T08:30:37;19.65;;;9.20;;
84288;SDS011;74602;50.294;18.660;2023-12-20T08:33:02;14.95;;;8.60;;
84288;SDS011;74602;50.294;18.660;2023-12-20T08:35:28;19.15;;;9.77;;
84288;SDS011;74602;50.294;18.660;2023-12-20T08:37:53;14.57;;;7.78;;
84288;SDS011;74602;50.294;18.660;2023-12-20T08:40:19;14.35;;;8.23;;
84288;SDS011;74602;50.294;18.660;2023-12-20T08:42:45;14.10;;;8.10;;
84288;SDS011;74602;50.294;18.660;2023-12-20T08:45:10;12.95;;;8.10;;
84288;SDS011;74602;50.294;18.660;2023-12-20T08:47:36;15.15;;;8.63;;
84288;SDS011;74602;50.294;18.660;2023-12-20T08:50:02;14.10;;;8.32;;
84288;SDS011;74602;50.294;18.660;2023-12-20T08:52:28;13.43;;;7.95;;
84288;SDS011;74602;50.294;18.660;2023-12-20T08:54:54;13.70;;;7.90;;
84288;SDS011;74602;50.294;18.660;2023-12-20T08:57:20;14.82;;;8.00;;
84288;SDS011;74602;50.294;18.660;2023-12-20T08:59:46;13.63;;;8.48;;
84288;SDS011;74602;50.294;18.660;2023-12-20T09:02:12;13.45;;;8.45;;
84288;SDS011;74602;50.294;18.660;2023-12-20T09:04:38;17.02;;;8.93;;
84288;SDS011;74602;50.294;18.660;2023-12-20T09:07:04;14.25;;;8.45;;
84288;SDS011;74602;50.294;18.660;2023-12-20T09:09:29;12.10;;;6.77;;
84288;SDS011;74602;50.294;18.660;2023-12-20T09:11:57;17.63;;;9.00;;
84288;SDS011;74602;50.294;18.660;2023-12-20T09:14:22;18.85;;;9.82;;
84288;SDS011;74602;50.294;18.660;2023-12-20T09:16:48;16.60;;;9.52;;
84288;SDS011;74602;50.294;18.660;2023-12-20T09:19:15;16.67;;;8.43;;
84288;SDS011;74602;50.294;18.660;2023-12-20T09:21:41;16.00;;;9.43;;
84288;SDS011;74602;50.294;18.660;2023-12-20T09:24:06;18.23;;;9.10;;
84288;SDS011;74602;50.294;18.660;2023-12-20T09:26:33;13.60;;;7.70;;
84288;SDS011;74602;50.294;18.660;2023-12-20T09:28:58;17.25;;;9.55;;
84288;SDS011;74602;50.294;18.660;2023-12-20T09:31:24;15.07;;;8.50;;
84288;SDS011;74602;50.294;18.660;2023-12-20T09:33:49;16.27;;;8.93;;
84288;SDS011;74602;50.294;18.660;2023-12-20T09:36:14;15.25;;;8.07;;
84288;SDS011;74602;50.294;18.660;2023-12-20T09:38:40;15.23;;;8.75;;
84288;SDS011;74602;50.294;18.660;2023-12-20T09:41:05;15.33;;;8.63;;
84288;SDS011;74602;50.294;18.660;2023-12-20T09:43:31;15.15;;;8.75;;
84288;SDS011;74602;50.294;18.660;2023-12-20T09:46:02;16.10;;;9.05;;
84288;SDS011;74602;50.294;18.660;2023-12-20T09:48:30;15.52;;;8.30;;
84288;SDS011;74602;50.294;18.660;2023-12-20T09:50:56;14.15;;;7.82;;
84288;SDS011;74602;50.294;18.660;2023-12-20T09:53:21;17.55;;;9.93;;
84288;SDS011;74602;50.294;18.660;2023-12-20T09:55:54;14.90;;;9.10;;
84288;SDS011;74602;50.294;18.660;2023-12-20T09:58:23;13.52;;;7.47;;
84288;SDS011;74602;50.294;18.660;2023-12-20T10:00:49;16.17;;;7.72;;
84288;SDS011;74602;50.294;18.660;2023-12-20T10:03:15;10.55;;;6.35;;
84288;SDS011;74602;50.294;18.660;2023-12-20T10:05:41;13.45;;;8.05;;
84288;SDS011;74602;50.294;18.660;2023-12-20T10:08:09;10.50;;;6.90;;
84288;SDS011;74602;50.294;18.660;2023-12-20T10:10:34;14.07;;;7.82;;
84288;SDS011;74602;50.294;18.660;2023-12-20T10:13:07;15.90;;;8.63;;
84288;SDS011;74602;50.294;18.660;2023-12-20T10:15:37;11.85;;;7.45;;
84288;SDS011;74602;50.294;18.660;2023-12-20T10:18:03;10.65;;;7.20;;
84288;SDS011;74602;50.294;18.660;2023-12-20T10:20:29;13.60;;;8.25;;
84288;SDS011;74602;50.294;18.660;2023-12-20T10:22:56;12.27;;;7.20;;
84288;SDS011;74602;50.294;18.660;2023-12-20T10:25:22;11.35;;;7.32;;
84288;SDS011;74602;50.294;18.660;2023-12-20T10:27:49;14.88;;;8.80;;
84288;SDS011;74602;50.294;18.660;2023-12-20T10:30:15;12.75;;;7.85;;
84288;SDS011;74602;50.294;18.660;2023-12-20T10:32:41;14.50;;;7.88;;
84288;SDS011;74602;50.294;18.660;2023-12-20T10:35:07;13.43;;;8.48;;
84288;SDS011;74602;50.294;18.660;2023-12-20T10:37:39;13.23;;;7.60;;
84288;SDS011;74602;50.294;18.660;2023-12-20T10:40:05;14.18;;;7.32;;
84288;SDS011;74602;50.294;18.660;2023-12-20T10:42:31;10.90;;;6.90;;
84288;SDS011;74602;50.294;18.660;2023-12-20T10:44:59;11.25;;;7.57;;
84288;SDS011;74602;50.294;18.660;2023-12-20T10:47:25;15.05;;;7.53;;
84288;SDS011;74602;50.294;18.660;2023-12-20T10:49:52;11.13;;;7.07;;
84288;SDS011;74602;50.294;18.660;2023-12-20T10:52:18;10.02;;;6.38;;
84288;SDS011;74602;50.294;18.660;2023-12-20T10:54:44;10.45;;;6.32;;
84288;SDS011;74602;50.294;18.660;2023-12-20T10:57:10;12.70;;;7.20;;
84288;SDS011;74602;50.294;18.660;2023-12-20T10:59:36;15.25;;;6.68;;
84288;SDS011;74602;50.294;18.660;2023-12-20T11:02:03;15.25;;;7.47;;
84288;SDS011;74602;50.294;18.660;2023-12-20T11:09:47;11.15;;;6.78;;
84288;SDS011;74602;50.294;18.660;2023-12-20T11:12:54;10.45;;;6.43;;
84288;SDS011;74602;50.294;18.660;2023-12-20T11:15:34;11.20;;;6.25;;
84288;SDS011;74602;50.294;18.660;2023-12-20T11:18:03;9.45;;;6.43;;
84288;SDS011;74602;50.294;18.660;2023-12-20T11:20:40;13.70;;;6.88;;
84288;SDS011;74602;50.294;18.660;2023-12-20T11:23:07;11.25;;;6.43;;
84288;SDS011;74602;50.294;18.660;2023-12-20T11:28:11;14.27;;;7.50;;
84288;SDS011;74602;50.294;18.660;2023-12-20T11:30:56;9.65;;;6.47;;
84288;SDS011;74602;50.294;18.660;2023-12-20T11:33:45;10.30;;;6.28;;
84288;SDS011;74602;50.294;18.660;2023-12-20T11:36:22;11.32;;;6.65;;
84288;SDS011;74602;50.294;18.660;2023-12-20T11:38:54;12.85;;;6.47;;
84288;SDS011;74602;50.294;18.660;2023-12-20T11:41:22;12.45;;;6.65;;
84288;SDS011;74602;50.294;18.660;2023-12-20T11:43:49;8.98;;;5.10;;
84288;SDS011;74602;50.294;18.660;2023-12-20T11:46:18;6.47;;;3.78;;
84288;SDS011;74602;50.294;18.660;2023-12-20T11:48:43;8.88;;;4.60;;
84288;SDS011;74602;50.294;18.660;2023-12-20T11:51:10;8.85;;;4.10;;
84288;SDS011;74602;50.294;18.660;2023-12-20T11:53:36;8.52;;;5.00;;
84288;SDS011;74602;50.294;18.660;2023-12-20T11:56:02;8.77;;;5.15;;
84288;SDS011;74602;50.294;18.660;2023-12-20T11:58:31;8.57;;;4.40;;
84288;SDS011;74602;50.294;18.660;2023-12-20T12:00:57;8.63;;;4.68;;
84288;SDS011;74602;50.294;18.660;2023-12-20T12:03:23;8.10;;;4.50;;
84288;SDS011;74602;50.294;18.660;2023-12-20T12:05:49;9.38;;;4.68;;
84288;SDS011;74602;50.294;18.660;2023-12-20T12:08:15;10.15;;;5.60;;
84288;SDS011;74602;50.294;18.660;2023-12-20T12:10:40;8.48;;;5.78;;
84288;SDS011;74602;50.294;18.660;2023-12-20T12:13:06;9.73;;;5.28;;
84288;SDS011;74602;50.294;18.660;2023-12-20T12:15:31;12.80;;;6.95;;
84288;SDS011;74602;50.294;18.660;2023-12-20T12:17:57;9.35;;;5.78;;
84288;SDS011;74602;50.294;18.660;2023-12-20T12:20:24;9.43;;;6.03;;
84288;SDS011;74602;50.294;18.660;2023-12-20T12:22:59;10.75;;;6.40;;
84288;SDS011;74602;50.294;18.660;2023-12-20T12:25:25;12.05;;;5.88;;
84288;SDS011;74602;50.294;18.660;2023-12-20T12:27:51;8.68;;;5.15;;
84288;SDS011;74602;50.294;18.660;2023-12-20T12:30:16;9.27;;;5.85;;
84288;SDS011;74602;50.294;18.660;2023-12-20T12:32:43;7.28;;;4.85;;
84288;SDS011;74602;50.294;18.660;2023-12-20T12:35:09;8.43;;;5.22;;
84288;SDS011;74602;50.294;18.660;2023-12-20T12:37:35;7.80;;;5.03;;
84288;SDS011;74602;50.294;18.660;2023-12-20T12:40:04;9.82;;;5.70;;
84288;SDS011;74602;50.294;18.660;2023-12-20T12:42:30;9.45;;;5.22;;
84288;SDS011;74602;50.294;18.660;2023-12-20T12:44:56;10.40;;;5.75;;
84288;SDS011;74602;50.294;18.660;2023-12-20T12:47:21;8.20;;;4.75;;
84288;SDS011;74602;50.294;18.660;2023-12-20T12:49:47;8.90;;;5.22;;
84288;SDS011;74602;50.294;18.660;2023-12-20T12:52:14;10.48;;;5.85;;
84288;SDS011;74602;50.294;18.660;2023-12-20T12:54:39;10.83;;;5.37;;
84288;SDS011;74602;50.294;18.660;2023-12-20T12:57:06;9.57;;;5.25;;
84288;SDS011;74602;50.294;18.660;2023-12-20T12:59:31;9.27;;;5.35;;
84288;SDS011;74602;50.294;18.660;2023-12-20T13:01:57;10.30;;;5.55;;
84288;SDS011;74602;50.294;18.660;2023-12-20T13:04:23;8.82;;;4.85;;
84288;SDS011;74602;50.294;18.660;2023-12-20T13:06:48;10.43;;;6.07;;
84288;SDS011;74602;50.294;18.660;2023-12-20T13:09:14;9.20;;;5.97;;
84288;SDS011;74602;50.294;18.660;2023-12-20T13:11:40;8.98;;;5.32;;
84288;SDS011;74602;50.294;18.660;2023-12-20T13:14:05;12.83;;;5.63;;
84288;SDS011;74602;50.294;18.660;2023-12-20T13:16:31;10.48;;;5.40;;
84288;SDS011;74602;50.294;18.660;2023-12-20T13:18:56;13.48;;;6.75;;
84288;SDS011;74602;50.294;18.660;2023-12-20T13:21:21;12.23;;;6.53;;
84288;SDS011;74602;50.294;18.660;2023-12-20T13:23:47;11.05;;;6.30;;
84288;SDS011;74602;50.294;18.660;2023-12-20T13:26:12;14.52;;;6.18;;
84288;SDS011;74602;50.294;18.660;2023-12-20T13:28:37;10.57;;;6.30;;
84288;SDS011;74602;50.294;18.660;2023-12-20T13:31:03;13.05;;;6.95;;
84288;SDS011;74602;50.294;18.660;2023-12-20T13:33:28;10.47;;;5.77;;
84288;SDS011;74602;50.294;18.660;2023-12-20T13:35:53;11.93;;;6.40;;
84288;SDS011;74602;50.294;18.660;2023-12-20T13:38:19;12.77;;;5.55;;
84288;SDS011;74602;50.294;18.660;2023-12-20T13:40:44;10.55;;;5.80;;
84288;SDS011;74602;50.294;18.660;2023-12-20T13:43:10;10.48;;;5.75;;
84288;SDS011;74602;50.294;18.660;2023-12-20T13:45:38;11.10;;;6.45;;
84288;SDS011;74602;50.294;18.660;2023-12-20T13:48:04;11.38;;;6.65;;
84288;SDS011;74602;50.294;18.660;2023-12-20T13:50:30;12.32;;;6.60;;
84288;SDS011;74602;50.294;18.660;2023-12-20T13:52:55;9.25;;;5.47;;
84288;SDS011;74602;50.294;18.660;2023-12-20T13:55:20;12.40;;;7.57;;
84288;SDS011;74602;50.294;18.660;2023-12-20T13:57:50;12.05;;;6.88;;
84288;SDS011;74602;50.294;18.660;2023-12-20T14:00:15;12.05;;;7.32;;
84288;SDS011;74602;50.294;18.660;2023-12-20T14:02:41;20.77;;;9.80;;
84288;SDS011;74602;50.294;18.660;2023-12-20T14:05:07;15.10;;;7.18;;
84288;SDS011;74602;50.294;18.660;2023-12-20T14:07:34;19.50;;;9.27;;
84288;SDS011;74602;50.294;18.660;2023-12-20T14:09:59;17.58;;;8.82;;
84288;SDS011;74602;50.294;18.660;2023-12-20T14:12:24;18.92;;;8.68;;
84288;SDS011;74602;50.294;18.660;2023-12-20T14:14:50;12.70;;;7.28;;
84288;SDS011;74602;50.294;18.660;2023-12-20T14:17:15;12.43;;;7.18;;
84288;SDS011;74602;50.294;18.660;2023-12-20T14:19:41;10.77;;;6.40;;
84288;SDS011;74602;50.294;18.660;2023-12-20T14:22:07;12.45;;;7.00;;
84288;SDS011;74602;50.294;18.660;2023-12-20T14:24:32;12.27;;;6.57;;